Station: Geraldton Airport

  Atmospheric Gas Attenuation - ITU Rec 676-11   --------------- db/100km ---------------
Date Time Temp RH % AH g/m3 Dew Point Wind Direction Speed kph Gust kph Barometer mB Rainfall Since 9am 24GHz 47GHz 76GHz 122GHz 134GHz 241GHz
07 06:30 10.9 77 7.66 7 19 26 1021.7 0 17.7 25.5 37.8 98.9 90.1 309.0
07 06:20 10.7 77 7.56 6.8 19 22 1021.4 0 17.5 25.4 37.5 98.1 89.0 305.0
07 06:10 10.5 77 7.47 6.6 19 20 1021.2 0 17.3 25.3 37.2 97.3 88.0 301.5
07 06:00 10.6 77 7.52 6.7 20 28 1021.1 0 17.4 25.4 37.3 97.7 88.5 303.4
07 05:50 10.6 77 7.52 6.7 20 26 1021.1 0 17.4 25.4 37.3 97.7 88.5 303.4
07 05:40 10.9 76 7.56 6.8 22 26 1021.2 0 17.5 25.3 37.4 97.8 88.7 304.2
07 05:30 10.8 76 7.51 6.7 22 30 1021.1 0 17.4 25.3 37.2 97.4 88.2 302.2
07 05:20 10.8 76 7.51 6.7 22 26 1021.1 0 17.4 25.3 37.2 97.4 88.2 302.2
07 05:10 10.7 77 7.56 6.8 22 26 1021.1 0 17.5 25.4 37.5 98.1 89.0 304.9
07 05:00 10.6 78 7.61 6.9 22 30 1021.1 0 17.6 25.5 37.7 98.7 89.7 307.7
07 04:50 10.4 79 7.62 6.9 19 22 1021.1 0 17.6 25.6 37.8 99.1 90.1 308.9
07 04:40 10.2 79 7.52 6.7 17 19 1021.3 0 17.4 25.5 37.5 98.3 89.0 305.0
07 04:30 10.4 78 7.52 6.7 15 19 1021.1 0 17.4 25.4 37.4 98.0 88.8 304.2
07 04:20 10.6 78 7.61 6.9 15 17 1021.2 0 17.6 25.5 37.7 98.7 89.8 307.7
07 04:10 10.7 77 7.56 6.8 15 17 1021.3 0 17.5 25.4 37.5 98.1 89.0 305.0
07 04:00 10.9 76 7.56 6.8 17 24 1021.4 0 17.5 25.3 37.4 97.8 88.8 304.2
07 03:40 10.4 77 7.42 6.5 6 7 1021.6 0 17.2 25.3 37.1 97.0 87.5 299.7
07 03:10 10.9 75 7.46 6.6 9 15 1021.7 0 17.3 25.2 37.0 96.8 87.4 299.7
07 03:00 10.6 75 7.32 6.4 2 7 1021.8 0 17.0 25.1 36.6 95.7 85.9 294.3
07 02:50 10.8 75 7.41 6.6 6 6 1021.9 0 17.2 25.1 36.8 96.4 86.9 297.8
07 02:40 11 73 7.31 6.4 11 13 1022.1 0 17.0 24.9 36.4 95.1 85.4 292.4
07 02:30 11.7 72 7.53 6.8 15 24 1022.1 0 17.4 25.1 36.9 96.6 87.5 299.9
07 02:20 11.2 75 7.6 6.9 13 17 1022.1 0 17.6 25.4 37.4 98.0 89.0 305.1
07 02:10 10.8 77 7.61 6.9 19 20 1022.1 0 17.6 25.5 37.7 98.6 89.6 307.1
07 02:00 10.8 77 7.61 6.9 19 26 1022 0 17.6 25.5 37.7 98.6 89.6 307.1
07 01:50 11 76 7.61 6.9 17 19 1022.1 0 17.6 25.4 37.6 98.3 89.4 306.3
07 01:30 11.5 74 7.64 7 17 20 1022.3 0 17.6 25.3 37.5 98.0 89.2 305.9
07 01:20 11.5 73 7.54 6.8 13 15 1022.3 0 17.4 25.2 37.1 97.0 87.9 301.2
07 01:10 12 72 7.67 7.1 19 20 1022.2 0 17.7 25.2 37.3 97.7 89.0 305.3
07 01:00 12 72 7.67 7.1 22 30 1022.1 0 17.7 25.2 37.3 97.7 89.0 305.2
07 00:50 11.8 74 7.79 7.3 20 26 1022 0 17.9 25.5 37.9 99.2 90.8 311.6
07 00:40 11.7 74 7.74 7.2 20 26 1022.2 0 17.8 25.4 37.8 98.9 90.3 309.7
07 00:30 11.8 75 7.89 7.5 22 28 1022.2 0 18.2 25.7 38.3 100.3 92.2 316.3
07 00:20 11.7 76 7.95 7.6 20 24 1022.3 0 18.3 25.8 38.6 101.1 93.1 319.5
07 00:10 11.7 76 7.95 7.6 22 26 1022.4 0 18.3 25.8 38.6 101.1 93.1 319.5
07 00:00 11.3 78 7.96 7.6 20 24 1022.5 0 18.3 25.9 38.9 101.8 93.7 321.6
06 23:50 11.4 78 8.01 7.7 20 26 1022.5 0 18.4 26.0 39.0 102.2 94.3 323.6
06 23:40 11.2 79 8.01 7.7 20 24 1022.5 0 18.4 26.0 39.1 102.5 94.5 324.4
06 23:30 11.1 80 8.06 7.8 19 24 1022.5 0 18.6 26.2 39.4 103.1 95.3 327.2
06 23:20 11.3 80 8.16 8 20 24 1022.5 0 18.8 26.3 39.7 104.0 96.4 331.1
06 23:10 11.2 80 8.11 7.9 19 20 1022.4 0 18.7 26.2 39.5 103.5 95.9 329.1
06 23:00 11.5 79 8.16 8 20 26 1022.3 0 18.7 26.2 39.6 103.7 96.1 330.2
06 22:50 11.9 77 8.16 8 22 24 1022.3 0 18.7 26.1 39.4 103.2 95.7 328.5
06 22:40 11.9 78 8.26 8.2 22 28 1022.4 0 18.9 26.2 39.8 104.3 97.0 333.2
06 22:30 11.9 78 8.26 8.2 20 28 1022.4 0 18.9 26.2 39.8 104.3 97.0 333.2
06 22:20 12.1 78 8.37 8.4 20 26 1022.4 0 19.2 26.4 40.1 105.2 98.2 337.6
06 22:10 11.8 80 8.42 8.5 19 20 1022.3 0 19.3 26.5 40.5 106.1 99.3 341.2
06 22:00 11.7 81 8.47 8.6 17 26 1022.4 0 19.4 26.6 40.7 106.8 100.1 344.1
06 21:50 11.6 82 8.52 8.6 19 20 1022.3 0 19.5 26.8 41.0 107.5 100.9 346.9
06 21:40 11.5 84 8.68 8.9 15 17 1022.2 0 19.9 27.1 41.7 109.4 103.2 355.0
06 21:30 11.1 86 8.66 8.8 15 19 1022.2 0 19.8 27.1 41.8 109.8 103.5 355.8
06 21:20 10.7 86 8.45 8.5 13 15 1021.9 0 19.4 26.9 41.2 107.9 101.1 347.4
06 21:10 10.8 86 8.5 8.6 15 17 1021.6 0 19.5 26.9 41.3 108.3 101.6 349.3
06 21:00 10.9 86 8.56 8.7 15 17 1021.6 0 19.6 27.0 41.5 108.8 102.3 351.7
06 20:50 11.3 86 8.77 9 17 19 1021.6 0 20.1 27.2 42.2 110.6 104.7 360.1
06 20:40 11.3 86 8.77 9 15 17 1021.8 0 20.1 27.3 42.2 110.7 104.7 360.1
06 20:30 11.4 85 8.73 9 17 19 1021.8 0 20.0 27.2 42.0 110.1 104.0 357.7
06 20:20 11.7 85 8.89 9.3 17 19 1021.8 0 20.3 27.3 42.5 111.4 105.8 364.1
06 20:10 11.8 85 8.95 9.4 15 15 1021.9 0 20.4 27.4 42.7 112.0 106.5 366.5
06 20:00 11.9 85 9 9.5 15 20 1022 0 20.5 27.5 42.8 112.4 107.1 368.5
06 19:50 12.2 85 9.17 9.8 19 20 1022 0 20.9 27.7 43.4 113.9 109.0 375.3
06 19:40 11.8 86 9.05 9.5 15 17 1022 0 20.6 27.6 43.1 113.1 107.9 371.4
06 19:30 12 86 9.17 9.7 15 15 1022 0 20.9 27.7 43.5 114.2 109.3 376.3
06 19:20 12 85 9.06 9.6 15 15 1022.1 0 20.7 27.5 43.0 112.9 107.8 371.0
06 19:10 12.5 84 9.24 9.9 13 13 1022.1 0 21.0 27.7 43.5 114.2 109.6 377.3
06 19:00 12.9 84 9.47 10.3 17 20 1022 0 21.5 27.9 44.3 116.2 112.2 386.4
06 18:50 13.2 83 9.53 10.4 15 17 1022 0 21.6 28.0 44.3 116.5 112.6 387.9
06 18:40 13.2 84 9.65 10.6 15 17 1021.9 0 21.9 28.2 44.8 117.8 114.2 393.6
06 18:30 13.6 83 9.77 10.8 17 19 1021.9 0 22.1 28.2 45.1 118.5 115.3 397.4
06 18:20 13.9 82 9.83 10.9 17 19 1021.8 0 22.2 28.2 45.2 118.8 115.7 398.8
06 18:10 14.2 81 9.89 11 17 17 1021.7 0 22.3 28.2 45.3 119.0 116.0 400.1
06 18:00 14.5 78 9.7 10.7 13 17 1021.6 0 21.9 27.8 44.3 116.4 113.0 389.4
06 17:50 15.4 75 9.85 11 15 15 1021.6 0 22.2 27.8 44.4 116.7 113.7 392.1
06 17:40 15.9 74 10.02 11.3 15 15 1021.5 0 22.5 27.9 44.8 117.8 115.2 397.6
06 17:30 16.5 72 10.11 11.4 15 20 1021.5 0 22.7 27.9 44.9 117.9 115.6 398.8
06 17:20 16.9 71 10.21 11.6 15 19 1021.4 0 22.8 27.9 45.0 118.4 116.3 401.4
06 17:10 17.2 70 10.25 11.7 17 20 1021.4 0 22.9 27.9 45.0 118.4 116.4 401.8
06 17:00 17.4 69 10.23 11.7 20 26 1021.4 0 22.9 27.8 44.8 117.8 115.8 399.8
06 16:50 17.8 69 10.47 12 19 20 1021.5 0 23.4 28.0 45.6 119.9 118.4 409.0
06 16:40 18 67 10.29 11.8 22 26 1021.5 0 23.0 27.7 44.8 117.6 115.7 399.6
06 16:30 18.8 59 9.5 10.6 22 30 1021.4 0 21.2 26.2 41.2 108.1 104.3 359.6
06 16:20 18.9 59 9.56 10.7 20 24 1021.4 0 21.4 26.2 41.4 108.6 104.9 361.9
06 16:10 19.1 57 9.34 10.4 19 20 1021.4 0 20.9 25.8 40.4 106.0 101.9 351.2
06 16:00 19.2 57 9.4 10.5 20 26 1021.5 0 21.0 25.9 40.6 106.5 102.5 353.4
06 15:50 19.3 57 9.45 10.6 20 24 1021.6 0 21.1 26.0 40.7 106.9 103.0 355.2
06 15:40 19.3 57 9.45 10.6 20 22 1021.7 0 21.1 26.0 40.7 106.9 103.0 355.3
06 15:30 19.5 59 9.9 11.3 19 24 1021.8 0 22.0 26.6 42.4 111.3 108.5 374.5
06 15:20 19.2 56 9.23 10.2 22 26 1021.9 0 20.6 25.7 40.0 104.8 100.4 346.0
06 15:10 19.3 59 9.79 11.1 17 19 1021.8 0 21.8 26.5 42.1 110.5 107.4 370.5
06 15:00 19.3 58 9.62 10.8 17 24 1021.8 0 21.5 26.2 41.4 108.7 105.2 362.9
06 14:50 19.4 62 10.34 11.9 15 17 1021.8 0 23.0 27.3 44.2 116.1 114.3 394.9
06 14:40 19.1 59 9.67 10.9 13 15 1022 0 21.6 26.4 41.7 109.5 106.1 366.1
06 14:30 19.1 60 9.83 11.2 19 24 1022 0 21.9 26.6 42.3 111.2 108.2 373.3
06 14:20 18.9 62 10.04 11.5 17 20 1022.1 0 22.4 27.0 43.3 113.7 111.2 383.8
06 14:10 19.2 63 10.39 12 15 20 1022.2 0 23.1 27.5 44.5 117.0 115.3 398.3
06 14:00 18.9 63 10.21 11.7 17 24 1022.3 0 22.7 27.3 44.0 115.5 113.4 391.6
06 13:50 18.9 62 10.04 11.5 13 15 1022.4 0 22.4 27.0 43.3 113.7 111.2 383.9
06 13:40 18.4 61 9.59 10.7 19 24 1022.5 0 21.5 26.5 41.8 109.7 106.1 365.8
06 13:30 18.3 64 10.01 11.4 15 22 1022.7 0 22.3 27.2 43.5 114.3 111.7 385.5
06 13:20 18 65 9.98 11.3 20 22 1022.8 0 22.3 27.2 43.6 114.4 111.7 385.6

Last Refresh: 07-Aug-2020 08:15:46

Most of the information presented on this site is sourced from the Bureau of Meteorology.  Copyright in all material sourced from the Bureau of Meteorology resides with the Commonwealth of Australia.